sensor_id;sensor_type;location;lat;lon;timestamp;pressure;altitude;pressure_sealevel;temperature;humidity
20628;BME280;10473;42.734;24.258;2023-06-24T00:00:43;92109.19;;;22.02;66.44
20628;BME280;10473;42.734;24.258;2023-06-24T00:03:11;92107.78;;;21.97;66.75
20628;BME280;10473;42.734;24.258;2023-06-24T00:05:39;92105.53;;;21.96;66.92
20628;BME280;10473;42.734;24.258;2023-06-24T00:08:08;92105.53;;;21.96;66.65
20628;BME280;10473;42.734;24.258;2023-06-24T00:10:35;92104.88;;;21.92;67.27
20628;BME280;10473;42.734;24.258;2023-06-24T00:13:04;92106.47;;;21.89;66.97
20628;BME280;10473;42.734;24.258;2023-06-24T00:15:33;92100.34;;;21.89;66.46
20628;BME280;10473;42.734;24.258;2023-06-24T00:18:01;92085.66;;;21.90;66.64
20628;BME280;10473;42.734;24.258;2023-06-24T00:20:32;92084.25;;;21.98;66.33
20628;BME280;10473;42.734;24.258;2023-06-24T00:22:59;92084.69;;;21.84;67.10
20628;BME280;10473;42.734;24.258;2023-06-24T00:25:27;92086.63;;;21.96;66.86
20628;BME280;10473;42.734;24.258;2023-06-24T00:27:55;92080.78;;;21.85;67.15
20628;BME280;10473;42.734;24.258;2023-06-24T00:30:25;92066.00;;;21.77;68.03
20628;BME280;10473;42.734;24.258;2023-06-24T00:32:53;92070.97;;;21.78;67.57
20628;BME280;10473;42.734;24.258;2023-06-24T00:35:22;92061.91;;;21.85;66.68
20628;BME280;10473;42.734;24.258;2023-06-24T00:37:49;92065.25;;;21.89;66.23
20628;BME280;10473;42.734;24.258;2023-06-24T00:40:17;92061.03;;;21.88;66.08
20628;BME280;10473;42.734;24.258;2023-06-24T00:42:45;92065.16;;;21.80;65.77
20628;BME280;10473;42.734;24.258;2023-06-24T00:45:14;92058.75;;;21.74;66.94
20628;BME280;10473;42.734;24.258;2023-06-24T00:47:44;92051.53;;;21.71;67.17
20628;BME280;10473;42.734;24.258;2023-06-24T00:50:11;92046.94;;;21.68;67.42
20628;BME280;10473;42.734;24.258;2023-06-24T00:52:39;92051.53;;;21.71;67.49
20628;BME280;10473;42.734;24.258;2023-06-24T00:55:10;92043.00;;;21.72;67.11
20628;BME280;10473;42.734;24.258;2023-06-24T00:57:39;92047.84;;;21.65;67.63
20628;BME280;10473;42.734;24.258;2023-06-24T01:00:08;92049.34;;;21.66;67.43
20628;BME280;10473;42.734;24.258;2023-06-24T01:02:40;92053.88;;;21.69;67.55
20628;BME280;10473;42.734;24.258;2023-06-24T01:05:11;92057.84;;;21.64;67.32
20628;BME280;10473;42.734;24.258;2023-06-24T01:07:39;92055.69;;;21.59;67.75
20628;BME280;10473;42.734;24.258;2023-06-24T01:10:09;92063.34;;;21.61;67.44
20628;BME280;10473;42.734;24.258;2023-06-24T01:12:40;92061.84;;;21.60;67.24
20628;BME280;10473;42.734;24.258;2023-06-24T01:15:10;92065.81;;;21.55;67.62
20628;BME280;10473;42.734;24.258;2023-06-24T01:17:43;92061.84;;;21.60;67.43
20628;BME280;10473;42.734;24.258;2023-06-24T01:20:18;92063.13;;;21.55;67.27
20628;BME280;10473;42.734;24.258;2023-06-24T01:23:06;92054.47;;;21.48;67.76
20628;BME280;10473;42.734;24.258;2023-06-24T01:25:48;92055.66;;;21.47;67.84
20628;BME280;10473;42.734;24.258;2023-06-24T01:28:27;92050.59;;;21.49;67.54
20628;BME280;10473;42.734;24.258;2023-06-24T01:31:24;92053.81;;;21.44;67.81
20628;BME280;10473;42.734;24.258;2023-06-24T01:34:02;92052.97;;;21.47;67.52
20628;BME280;10473;42.734;24.258;2023-06-24T01:36:37;92054.16;;;21.46;67.58
20628;BME280;10473;42.734;24.258;2023-06-24T01:39:08;92042.59;;;21.45;67.49
20628;BME280;10473;42.734;24.258;2023-06-24T01:41:40;92031.63;;;21.40;67.69
20628;BME280;10473;42.734;24.258;2023-06-24T01:44:09;92040.97;;;21.35;67.96
20628;BME280;10473;42.734;24.258;2023-06-24T01:46:46;92035.78;;;21.28;68.28
20628;BME280;10473;42.734;24.258;2023-06-24T01:49:16;92042.38;;;21.27;68.29
20628;BME280;10473;42.734;24.258;2023-06-24T01:51:46;92038.91;;;21.27;68.38
20628;BME280;10473;42.734;24.258;2023-06-24T01:54:17;92047.97;;;21.33;68.28
20628;BME280;10473;42.734;24.258;2023-06-24T01:56:48;92047.22;;;21.32;68.31
20628;BME280;10473;42.734;24.258;2023-06-24T01:59:18;92038.59;;;21.25;68.86
20628;BME280;10473;42.734;24.258;2023-06-24T02:01:50;92032.91;;;21.07;70.39
20628;BME280;10473;42.734;24.258;2023-06-24T02:04:20;92034.34;;;21.24;68.60
20628;BME280;10473;42.734;24.258;2023-06-24T02:06:49;92036.34;;;21.07;69.48
20628;BME280;10473;42.734;24.258;2023-06-24T02:09:20;92047.94;;;20.92;70.26
20628;BME280;10473;42.734;24.258;2023-06-24T02:11:49;92055.00;;;21.02;69.42
20628;BME280;10473;42.734;24.258;2023-06-24T02:14:17;92045.72;;;21.03;69.02
20628;BME280;10473;42.734;24.258;2023-06-24T02:16:48;92050.88;;;20.97;69.76
20628;BME280;10473;42.734;24.258;2023-06-24T02:19:23;92049.69;;;20.82;70.81
20628;BME280;10473;42.734;24.258;2023-06-24T02:21:55;92047.88;;;20.79;70.84
20628;BME280;10473;42.734;24.258;2023-06-24T02:24:24;92062.09;;;20.96;69.40
20628;BME280;10473;42.734;24.258;2023-06-24T02:26:53;92073.50;;;21.00;69.04
20628;BME280;10473;42.734;24.258;2023-06-24T02:29:21;92073.72;;;20.93;69.48
20628;BME280;10473;42.734;24.258;2023-06-24T02:31:51;92069.22;;;20.86;69.72
20628;BME280;10473;42.734;24.258;2023-06-24T02:34:22;92076.31;;;20.80;70.33
20628;BME280;10473;42.734;24.258;2023-06-24T02:36:50;92068.91;;;20.84;70.13
20628;BME280;10473;42.734;24.258;2023-06-24T02:39:20;92055.84;;;20.83;70.19
20628;BME280;10473;42.734;24.258;2023-06-24T02:41:50;92058.63;;;20.79;70.22
20628;BME280;10473;42.734;24.258;2023-06-24T02:44:18;92045.75;;;20.87;69.59
20628;BME280;10473;42.734;24.258;2023-06-24T02:46:48;92050.38;;;20.86;69.74
20628;BME280;10473;42.734;24.258;2023-06-24T02:49:19;92052.91;;;20.77;70.21
20628;BME280;10473;42.734;24.258;2023-06-24T02:51:48;92046.63;;;20.68;70.45
20628;BME280;10473;42.734;24.258;2023-06-24T02:54:16;92050.16;;;20.65;70.46
20628;BME280;10473;42.734;24.258;2023-06-24T02:57:03;92043.88;;;20.55;71.25
20628;BME280;10473;42.734;24.258;2023-06-24T02:59:51;92055.16;;;20.34;72.73
20628;BME280;10473;42.734;24.258;2023-06-24T03:02:20;92056.19;;;20.24;73.03
20628;BME280;10473;42.734;24.258;2023-06-24T03:04:50;92059.66;;;20.05;74.17
20628;BME280;10473;42.734;24.258;2023-06-24T03:07:19;92061.13;;;20.10;73.77
20628;BME280;10473;42.734;24.258;2023-06-24T03:09:48;92056.09;;;20.28;72.72
20628;BME280;10473;42.734;24.258;2023-06-24T03:12:16;92055.31;;;20.27;72.46
20628;BME280;10473;42.734;24.258;2023-06-24T03:14:44;92058.59;;;20.35;72.17
20628;BME280;10473;42.734;24.258;2023-06-24T03:17:11;92053.13;;;20.38;71.99
20628;BME280;10473;42.734;24.258;2023-06-24T03:19:39;92050.19;;;20.33;72.22
20628;BME280;10473;42.734;24.258;2023-06-24T03:22:08;92059.38;;;20.35;71.96
20628;BME280;10473;42.734;24.258;2023-06-24T03:24:36;92062.72;;;20.39;71.70
20628;BME280;10473;42.734;24.258;2023-06-24T03:27:04;92067.34;;;20.39;71.66
20628;BME280;10473;42.734;24.258;2023-06-24T03:29:38;92078.13;;;20.39;71.88
20628;BME280;10473;42.734;24.258;2023-06-24T03:32:13;92078.19;;;20.35;72.24
20628;BME280;10473;42.734;24.258;2023-06-24T03:34:41;92088.19;;;20.35;72.33
20628;BME280;10473;42.734;24.258;2023-06-24T03:37:12;92088.72;;;20.30;72.08
20628;BME280;10473;42.734;24.258;2023-06-24T03:39:41;92097.97;;;20.29;72.61
20628;BME280;10473;42.734;24.258;2023-06-24T03:42:09;92092.75;;;20.22;73.77
20628;BME280;10473;42.734;24.258;2023-06-24T03:44:37;92111.19;;;20.04;74.37
20628;BME280;10473;42.734;24.258;2023-06-24T03:47:05;92107.78;;;19.84;75.45
20628;BME280;10473;42.734;24.258;2023-06-24T03:49:33;92111.78;;;19.76;75.49
20628;BME280;10473;42.734;24.258;2023-06-24T03:52:01;92111.50;;;19.90;74.72
20628;BME280;10473;42.734;24.258;2023-06-24T03:54:31;92111.19;;;20.04;73.93
20628;BME280;10473;42.734;24.258;2023-06-24T03:56:59;92123.41;;;20.08;73.86
20628;BME280;10473;42.734;24.258;2023-06-24T03:59:26;92122.19;;;20.13;73.67
20628;BME280;10473;42.734;24.258;2023-06-24T04:01:56;92128.75;;;20.28;73.21
20628;BME280;10473;42.734;24.258;2023-06-24T04:04:23;92116.63;;;20.36;72.71
20628;BME280;10473;42.734;24.258;2023-06-24T04:06:51;92134.06;;;20.47;72.19
20628;BME280;10473;42.734;24.258;2023-06-24T04:09:19;92127.75;;;20.54;74.38
20628;BME280;10473;42.734;24.258;2023-06-24T04:11:50;92131.03;;;20.45;72.87
20628;BME280;10473;42.734;24.258;2023-06-24T04:14:17;92127.06;;;20.50;73.51
20628;BME280;10473;42.734;24.258;2023-06-24T04:16:45;92135.16;;;20.66;73.02
20628;BME280;10473;42.734;24.258;2023-06-24T04:19:13;92130.44;;;20.86;73.35
20628;BME280;10473;42.734;24.258;2023-06-24T04:21:40;92133.31;;;20.95;72.02
20628;BME280;10473;42.734;24.258;2023-06-24T04:24:08;92134.53;;;21.22;71.45
20628;BME280;10473;42.734;24.258;2023-06-24T04:26:37;92144.84;;;21.40;71.99
20628;BME280;10473;42.734;24.258;2023-06-24T04:29:06;92143.31;;;21.67;71.13
20628;BME280;10473;42.734;24.258;2023-06-24T04:31:34;92149.09;;;21.82;70.44
20628;BME280;10473;42.734;24.258;2023-06-24T04:34:01;92154.44;;;22.23;67.03
20628;BME280;10473;42.734;24.258;2023-06-24T04:36:30;92153.44;;;22.45;66.65
20628;BME280;10473;42.734;24.258;2023-06-24T04:38:57;92150.72;;;22.70;64.62
20628;BME280;10473;42.734;24.258;2023-06-24T04:41:25;92157.91;;;22.86;67.98
20628;BME280;10473;42.734;24.258;2023-06-24T04:43:53;92146.09;;;23.05;67.33
20628;BME280;10473;42.734;24.258;2023-06-24T04:46:22;92150.59;;;22.86;65.82
20628;BME280;10473;42.734;24.258;2023-06-24T04:48:49;92150.00;;;23.04;65.13
20628;BME280;10473;42.734;24.258;2023-06-24T04:51:17;92148.50;;;23.03;64.59
20628;BME280;10473;42.734;24.258;2023-06-24T04:53:45;92152.13;;;23.34;62.66
20628;BME280;10473;42.734;24.258;2023-06-24T04:56:12;92148.66;;;23.55;61.44
20628;BME280;10473;42.734;24.258;2023-06-24T04:58:40;92147.19;;;23.75;62.65
20628;BME280;10473;42.734;24.258;2023-06-24T05:01:08;92149.91;;;23.97;58.92
20628;BME280;10473;42.734;24.258;2023-06-24T05:03:37;92156.31;;;24.12;58.40
20628;BME280;10473;42.734;24.258;2023-06-24T05:06:04;92155.13;;;24.13;58.57
20628;BME280;10473;42.734;24.258;2023-06-24T05:08:32;92156.63;;;24.14;58.17
20628;BME280;10473;42.734;24.258;2023-06-24T05:11:00;92151.88;;;24.27;59.51
20628;BME280;10473;42.734;24.258;2023-06-24T05:13:27;92157.78;;;24.34;62.13
20628;BME280;10473;42.734;24.258;2023-06-24T05:15:55;92152.59;;;24.49;61.07
20628;BME280;10473;42.734;24.258;2023-06-24T05:18:23;92166.19;;;24.58;60.58
20628;BME280;10473;42.734;24.258;2023-06-24T05:20:52;92162.91;;;24.63;59.43
20628;BME280;10473;42.734;24.258;2023-06-24T05:23:19;92157.81;;;24.65;58.78
20628;BME280;10473;42.734;24.258;2023-06-24T05:25:48;92160.38;;;24.68;59.02
20628;BME280;10473;42.734;24.258;2023-06-24T05:28:16;92154.91;;;25.08;58.64
20628;BME280;10473;42.734;24.258;2023-06-24T05:30:44;92154.88;;;24.90;57.66
20628;BME280;10473;42.734;24.258;2023-06-24T05:33:12;92163.53;;;25.07;58.26
20628;BME280;10473;42.734;24.258;2023-06-24T05:35:40;92156.09;;;24.98;57.89
20628;BME280;10473;42.734;24.258;2023-06-24T05:38:11;92152.78;;;25.03;57.36
20628;BME280;10473;42.734;24.258;2023-06-24T05:40:38;92148.91;;;25.04;59.73
20628;BME280;10473;42.734;24.258;2023-06-24T05:43:06;92157.38;;;25.24;57.27
20628;BME280;10473;42.734;24.258;2023-06-24T05:45:34;92151.97;;;25.33;56.98
20628;BME280;10473;42.734;24.258;2023-06-24T05:48:02;92158.88;;;25.25;57.14
20628;BME280;10473;42.734;24.258;2023-06-24T05:50:30;92150.66;;;24.98;57.62
20628;BME280;10473;42.734;24.258;2023-06-24T05:52:57;92152.06;;;25.02;59.00
20628;BME280;10473;42.734;24.258;2023-06-24T05:55:27;92151.28;;;25.02;58.50
20628;BME280;10473;42.734;24.258;2023-06-24T05:57:54;92145.38;;;24.85;58.28
20628;BME280;10473;42.734;24.258;2023-06-24T06:00:22;92144.44;;;24.79;60.32
20628;BME280;10473;42.734;24.258;2023-06-24T06:02:50;92139.38;;;24.99;61.10
20628;BME280;10473;42.734;24.258;2023-06-24T06:05:17;92137.91;;;25.08;60.40
20628;BME280;10473;42.734;24.258;2023-06-24T06:07:45;92148.91;;;25.13;56.48
20628;BME280;10473;42.734;24.258;2023-06-24T06:10:12;92147.69;;;25.05;56.94
20628;BME280;10473;42.734;24.258;2023-06-24T06:12:45;92138.31;;;24.97;57.79
20628;BME280;10473;42.734;24.258;2023-06-24T06:15:12;92139.81;;;24.98;57.16
20628;BME280;10473;42.734;24.258;2023-06-24T06:17:40;92138.06;;;25.04;57.44
20628;BME280;10473;42.734;24.258;2023-06-24T06:20:08;92141.72;;;25.28;57.56
20628;BME280;10473;42.734;24.258;2023-06-24T06:22:36;92140.09;;;25.49;58.21
20628;BME280;10473;42.734;24.258;2023-06-24T06:25:05;92137.06;;;25.47;57.29
20628;BME280;10473;42.734;24.258;2023-06-24T06:28:00;92136.59;;;25.66;58.47
20628;BME280;10473;42.734;24.258;2023-06-24T06:30:28;92138.41;;;26.05;53.99
20628;BME280;10473;42.734;24.258;2023-06-24T06:32:55;92138.06;;;26.21;57.49
20628;BME280;10473;42.734;24.258;2023-06-24T06:35:23;92131.03;;;25.97;55.89
20628;BME280;10473;42.734;24.258;2023-06-24T06:37:51;92134.97;;;25.96;55.62
20628;BME280;10473;42.734;24.258;2023-06-24T06:40:20;92130.09;;;26.09;57.89
20628;BME280;10473;42.734;24.258;2023-06-24T06:42:49;92137.31;;;26.30;57.55
20628;BME280;10473;42.734;24.258;2023-06-24T06:45:18;92132.56;;;26.48;54.79
20628;BME280;10473;42.734;24.258;2023-06-24T06:47:47;92140.84;;;26.54;55.65
20628;BME280;10473;42.734;24.258;2023-06-24T06:50:15;92135.41;;;26.63;54.24
20628;BME280;10473;42.734;24.258;2023-06-24T06:52:42;92132.72;;;26.86;56.17
20628;BME280;10473;42.734;24.258;2023-06-24T06:55:10;92137.44;;;27.18;55.22
20628;BME280;10473;42.734;24.258;2023-06-24T06:57:38;92128.16;;;27.48;54.34
20628;BME280;10473;42.734;24.258;2023-06-24T07:00:06;92133.53;;;27.57;53.56
20628;BME280;10473;42.734;24.258;2023-06-24T07:02:35;92134.06;;;27.47;54.01
20628;BME280;10473;42.734;24.258;2023-06-24T07:05:05;92139.75;;;27.72;55.77
20628;BME280;10473;42.734;24.258;2023-06-24T07:07:32;92138.16;;;28.04;53.45
20628;BME280;10473;42.734;24.258;2023-06-24T07:10:00;92133.38;;;28.13;52.48
20628;BME280;10473;42.734;24.258;2023-06-24T07:12:27;92140.94;;;27.80;53.08
20628;BME280;10473;42.734;24.258;2023-06-24T07:14:55;92143.81;;;28.00;53.15
20628;BME280;10473;42.734;24.258;2023-06-24T07:17:23;92131.66;;;27.63;52.91
20628;BME280;10473;42.734;24.258;2023-06-24T07:19:52;92132.25;;;27.20;54.80
20628;BME280;10473;42.734;24.258;2023-06-24T07:22:20;92136.84;;;27.38;53.64
20628;BME280;10473;42.734;24.258;2023-06-24T07:24:47;92137.50;;;27.71;53.85
20628;BME280;10473;42.734;24.258;2023-06-24T07:27:15;92133.16;;;27.64;53.83
20628;BME280;10473;42.734;24.258;2023-06-24T07:29:42;92141.91;;;27.68;52.35
20628;BME280;10473;42.734;24.258;2023-06-24T07:32:10;92137.09;;;27.87;53.90
20628;BME280;10473;42.734;24.258;2023-06-24T07:34:38;92136.59;;;27.27;52.29
20628;BME280;10473;42.734;24.258;2023-06-24T07:37:07;92141.44;;;27.70;51.35
20628;BME280;10473;42.734;24.258;2023-06-24T07:39:34;92140.53;;;27.49;49.95
20628;BME280;10473;42.734;24.258;2023-06-24T07:42:02;92143.34;;;27.78;54.05
20628;BME280;10473;42.734;24.258;2023-06-24T07:44:30;92141.63;;;28.04;51.49
20628;BME280;10473;42.734;24.258;2023-06-24T07:46:58;92139.84;;;28.01;49.59
20628;BME280;10473;42.734;24.258;2023-06-24T07:49:25;92140.25;;;28.38;50.24
20628;BME280;10473;42.734;24.258;2023-06-24T07:51:53;92131.72;;;28.59;49.06
20628;BME280;10473;42.734;24.258;2023-06-24T07:54:22;92132.53;;;28.65;50.02
20628;BME280;10473;42.734;24.258;2023-06-24T07:56:50;92128.97;;;28.30;49.78
20628;BME280;10473;42.734;24.258;2023-06-24T07:59:17;92136.94;;;28.34;49.18
20628;BME280;10473;42.734;24.258;2023-06-24T08:01:45;92133.84;;;28.70;48.45
20628;BME280;10473;42.734;24.258;2023-06-24T08:04:14;92132.19;;;28.92;49.50
20628;BME280;10473;42.734;24.258;2023-06-24T08:06:42;92130.75;;;29.11;47.17
20628;BME280;10473;42.734;24.258;2023-06-24T08:09:09;92131.88;;;29.19;46.36
20628;BME280;10473;42.734;24.258;2023-06-24T08:11:38;92138.28;;;29.16;44.86
20628;BME280;10473;42.734;24.258;2023-06-24T08:14:06;92143.00;;;29.16;46.04
20628;BME280;10473;42.734;24.258;2023-06-24T08:16:34;92150.66;;;29.32;47.69
20628;BME280;10473;42.734;24.258;2023-06-24T08:19:01;92140.66;;;29.43;46.07
20628;BME280;10473;42.734;24.258;2023-06-24T08:21:29;92132.94;;;29.42;46.65
20628;BME280;10473;42.734;24.258;2023-06-24T08:23:57;92137.06;;;29.37;49.87
20628;BME280;10473;42.734;24.258;2023-06-24T08:26:30;92136.84;;;29.55;48.49
20628;BME280;10473;42.734;24.258;2023-06-24T08:28:59;92139.78;;;29.72;46.73
20628;BME280;10473;42.734;24.258;2023-06-24T08:31:27;92136.34;;;29.77;45.60
20628;BME280;10473;42.734;24.258;2023-06-24T08:33:54;92140.13;;;29.79;45.38
20628;BME280;10473;42.734;24.258;2023-06-24T08:36:22;92143.97;;;29.67;47.82
20628;BME280;10473;42.734;24.258;2023-06-24T08:38:50;92140.00;;;29.68;47.06
20628;BME280;10473;42.734;24.258;2023-06-24T08:41:19;92152.97;;;29.73;47.52
20628;BME280;10473;42.734;24.258;2023-06-24T08:43:47;92138.41;;;29.82;46.40
20628;BME280;10473;42.734;24.258;2023-06-24T08:46:16;92132.84;;;29.96;47.45
20628;BME280;10473;42.734;24.258;2023-06-24T08:48:45;92139.06;;;29.97;47.85
20628;BME280;10473;42.734;24.258;2023-06-24T08:51:18;92131.34;;;29.95;47.70
20628;BME280;10473;42.734;24.258;2023-06-24T08:53:48;92130.06;;;29.91;46.16
20628;BME280;10473;42.734;24.258;2023-06-24T08:56:18;92139.97;;;29.88;48.65
20628;BME280;10473;42.734;24.258;2023-06-24T08:58:46;92133.38;;;29.55;47.11
20628;BME280;10473;42.734;24.258;2023-06-24T09:01:14;92128.69;;;29.41;47.77
20628;BME280;10473;42.734;24.258;2023-06-24T09:03:43;92124.75;;;29.07;48.98
20628;BME280;10473;42.734;24.258;2023-06-24T09:06:10;92128.88;;;29.37;51.36
20628;BME280;10473;42.734;24.258;2023-06-24T09:08:38;92124.28;;;29.63;49.99
20628;BME280;10473;42.734;24.258;2023-06-24T09:11:08;92125.22;;;29.80;49.05
20628;BME280;10473;42.734;24.258;2023-06-24T09:13:36;92125.63;;;29.93;49.16
20628;BME280;10473;42.734;24.258;2023-06-24T09:16:13;92114.53;;;30.02;49.92
20628;BME280;10473;42.734;24.258;2023-06-24T09:18:47;92118.75;;;30.03;49.45
20628;BME280;10473;42.734;24.258;2023-06-24T09:21:21;92112.50;;;29.97;47.44
20628;BME280;10473;42.734;24.258;2023-06-24T09:23:52;92115.75;;;30.21;47.65
20628;BME280;10473;42.734;24.258;2023-06-24T09:26:23;92116.09;;;30.34;47.14
20628;BME280;10473;42.734;24.258;2023-06-24T09:28:51;92115.09;;;30.32;46.13
20628;BME280;10473;42.734;24.258;2023-06-24T09:31:20;92105.75;;;30.18;48.37
20628;BME280;10473;42.734;24.258;2023-06-24T09:33:50;92103.13;;;30.29;48.04
20628;BME280;10473;42.734;24.258;2023-06-24T09:36:18;92104.38;;;30.28;47.12
20628;BME280;10473;42.734;24.258;2023-06-24T09:38:46;92103.59;;;30.28;48.53
20628;BME280;10473;42.734;24.258;2023-06-24T09:41:14;92114.22;;;30.20;48.25
20628;BME280;10473;42.734;24.258;2023-06-24T09:43:43;92112.06;;;30.04;49.22
20628;BME280;10473;42.734;24.258;2023-06-24T09:46:11;92107.28;;;29.99;49.66
20628;BME280;10473;42.734;24.258;2023-06-24T09:48:39;92108.88;;;30.31;46.38
20628;BME280;10473;42.734;24.258;2023-06-24T09:51:08;92110.00;;;30.45;46.63
20628;BME280;10473;42.734;24.258;2023-06-24T09:53:37;92106.56;;;30.24;47.80
20628;BME280;10473;42.734;24.258;2023-06-24T09:56:07;92111.03;;;30.02;48.80
20628;BME280;10473;42.734;24.258;2023-06-24T09:58:35;92107.53;;;30.21;47.72
20628;BME280;10473;42.734;24.258;2023-06-24T10:01:04;92109.94;;;30.39;49.67
20628;BME280;10473;42.734;24.258;2023-06-24T10:03:34;92111.31;;;30.55;47.27
20628;BME280;10473;42.734;24.258;2023-06-24T10:06:03;92113.38;;;30.65;50.29
20628;BME280;10473;42.734;24.258;2023-06-24T10:08:33;92115.44;;;30.70;48.11
20628;BME280;10473;42.734;24.258;2023-06-24T10:11:01;92110.84;;;30.87;48.48
20628;BME280;10473;42.734;24.258;2023-06-24T10:13:29;92110.06;;;30.81;48.82
20628;BME280;10473;42.734;24.258;2023-06-24T10:15:57;92108.50;;;30.44;47.34
20628;BME280;10473;42.734;24.258;2023-06-24T10:18:33;92103.81;;;30.75;48.22
20628;BME280;10473;42.734;24.258;2023-06-24T10:21:01;92096.97;;;30.96;50.08
20628;BME280;10473;42.734;24.258;2023-06-24T10:23:40;92095.19;;;30.88;46.46
20628;BME280;10473;42.734;24.258;2023-06-24T10:26:09;92098.88;;;30.54;48.98
20628;BME280;10473;42.734;24.258;2023-06-24T10:29:08;92088.81;;;30.14;48.77
20628;BME280;10473;42.734;24.258;2023-06-24T10:31:55;92093.19;;;30.06;49.85
20628;BME280;10473;42.734;24.258;2023-06-24T10:34:28;92097.03;;;30.45;49.69
20628;BME280;10473;42.734;24.258;2023-06-24T10:36:59;92092.00;;;30.64;47.36
20628;BME280;10473;42.734;24.258;2023-06-24T10:39:52;92088.16;;;30.81;46.90
20628;BME280;10473;42.734;24.258;2023-06-24T10:42:32;92086.03;;;30.96;47.26
20628;BME280;10473;42.734;24.258;2023-06-24T10:45:02;92081.97;;;30.86;46.76
20628;BME280;10473;42.734;24.258;2023-06-24T10:47:40;92078.03;;;30.93;49.29
20628;BME280;10473;42.734;24.258;2023-06-24T10:50:10;92050.28;;;30.43;48.00
20628;BME280;10473;42.734;24.258;2023-06-24T10:52:38;92050.28;;;30.43;50.16
20628;BME280;10473;42.734;24.258;2023-06-24T10:55:09;92045.53;;;30.69;48.52
20628;BME280;10473;42.734;24.258;2023-06-24T10:57:36;92052.16;;;30.94;49.23
20628;BME280;10473;42.734;24.258;2023-06-24T11:00:05;92060.47;;;31.16;45.44
20628;BME280;10473;42.734;24.258;2023-06-24T11:02:33;92050.63;;;31.35;47.38
20628;BME280;10473;42.734;24.258;2023-06-24T11:05:03;92033.03;;;31.52;49.19
20628;BME280;10473;42.734;24.258;2023-06-24T11:07:32;92030.38;;;31.74;47.20
20628;BME280;10473;42.734;24.258;2023-06-24T11:10:03;92026.19;;;31.95;46.07
20628;BME280;10473;42.734;24.258;2023-06-24T11:12:34;92030.69;;;32.09;46.78
20628;BME280;10473;42.734;24.258;2023-06-24T11:15:03;92031.75;;;32.28;47.54
20628;BME280;10473;42.734;24.258;2023-06-24T11:17:32;92024.75;;;32.38;45.92
20628;BME280;10473;42.734;24.258;2023-06-24T11:20:00;92013.78;;;32.38;44.69
20628;BME280;10473;42.734;24.258;2023-06-24T11:22:28;92019.97;;;32.17;45.85
20628;BME280;10473;42.734;24.258;2023-06-24T11:24:56;92013.69;;;31.83;45.43
20628;BME280;10473;42.734;24.258;2023-06-24T11:27:25;92014.06;;;31.38;46.44
20628;BME280;10473;42.734;24.258;2023-06-24T11:29:56;92024.34;;;31.06;46.51
20628;BME280;10473;42.734;24.258;2023-06-24T11:32:35;92018.25;;;30.86;47.62
20628;BME280;10473;42.734;24.258;2023-06-24T11:35:04;92016.97;;;30.45;48.88
20628;BME280;10473;42.734;24.258;2023-06-24T11:37:32;92024.28;;;30.59;48.00
20628;BME280;10473;42.734;24.258;2023-06-24T11:40:01;92023.00;;;30.85;46.12
20628;BME280;10473;42.734;24.258;2023-06-24T11:42:31;92011.72;;;30.72;48.52
20628;BME280;10473;42.734;24.258;2023-06-24T11:45:05;92006.59;;;30.54;49.46
20628;BME280;10473;42.734;24.258;2023-06-24T11:47:33;92001.88;;;30.60;48.29
20628;BME280;10473;42.734;24.258;2023-06-24T11:50:02;92000.44;;;30.65;50.14
20628;BME280;10473;42.734;24.258;2023-06-24T11:52:38;92009.75;;;30.78;48.53
20628;BME280;10473;42.734;24.258;2023-06-24T11:55:15;92008.31;;;30.88;49.90
20628;BME280;10473;42.734;24.258;2023-06-24T11:57:55;92002.13;;;30.93;47.50
20628;BME280;10473;42.734;24.258;2023-06-24T12:00:25;91995.19;;;30.98;47.38
20628;BME280;10473;42.734;24.258;2023-06-24T12:02:54;91983.31;;;31.17;50.38
20628;BME280;10473;42.734;24.258;2023-06-24T12:05:28;91972.59;;;31.14;50.96
20628;BME280;10473;42.734;24.258;2023-06-24T12:07:57;91994.91;;;31.49;48.46
20628;BME280;10473;42.734;24.258;2023-06-24T12:10:25;91979.19;;;31.44;47.82
20628;BME280;10473;42.734;24.258;2023-06-24T12:12:53;91980.00;;;31.66;46.55
20628;BME280;10473;42.734;24.258;2023-06-24T12:15:21;91986.22;;;31.61;48.50
20628;BME280;10473;42.734;24.258;2023-06-24T12:17:55;91984.72;;;31.71;49.60
20628;BME280;10473;42.734;24.258;2023-06-24T12:20:24;91945.34;;;31.63;46.54
20628;BME280;10473;42.734;24.258;2023-06-24T12:22:54;91976.56;;;31.93;47.58
20628;BME280;10473;42.734;24.258;2023-06-24T12:25:29;91969.59;;;31.98;46.54
20628;BME280;10473;42.734;24.258;2023-06-24T12:28:00;91970.84;;;31.91;46.59
20628;BME280;10473;42.734;24.258;2023-06-24T12:30:28;91957.34;;;31.82;48.54
20628;BME280;10473;42.734;24.258;2023-06-24T12:32:58;91957.81;;;31.64;48.47
20628;BME280;10473;42.734;24.258;2023-06-24T12:35:26;91958.81;;;31.72;47.32
20628;BME280;10473;42.734;24.258;2023-06-24T12:37:56;91952.88;;;31.74;48.41
20628;BME280;10473;42.734;24.258;2023-06-24T12:40:28;91942.34;;;31.56;48.55
20628;BME280;10473;42.734;24.258;2023-06-24T12:42:56;91932.91;;;31.68;49.49
20628;BME280;10473;42.734;24.258;2023-06-24T12:45:27;91914.44;;;31.46;47.77
20628;BME280;10473;42.734;24.258;2023-06-24T12:47:55;91936.88;;;31.61;48.36
20628;BME280;10473;42.734;24.258;2023-06-24T12:50:24;91938.09;;;31.55;47.98
20628;BME280;10473;42.734;24.258;2023-06-24T12:52:52;91938.34;;;31.46;46.85
20628;BME280;10473;42.734;24.258;2023-06-24T12:55:21;91937.81;;;31.36;46.28
20628;BME280;10473;42.734;24.258;2023-06-24T12:57:48;91933.50;;;31.13;47.80
20628;BME280;10473;42.734;24.258;2023-06-24T13:00:19;91929.94;;;30.91;50.12
20628;BME280;10473;42.734;24.258;2023-06-24T13:02:48;91945.19;;;30.61;51.78